sensor_id;sensor_type;location;lat;lon;timestamp;P1;durP1;ratioP1;P2;durP2;ratioP2
35777;SDS011;21899;42.662;23.316;2023-08-21T00:00:42;8.43;;;5.93;;
35777;SDS011;21899;42.662;23.316;2023-08-21T00:03:07;9.35;;;5.80;;
35777;SDS011;21899;42.662;23.316;2023-08-21T00:05:33;15.18;;;5.88;;
35777;SDS011;21899;42.662;23.316;2023-08-21T00:07:58;13.18;;;5.65;;
35777;SDS011;21899;42.662;23.316;2023-08-21T00:10:24;8.95;;;5.57;;
35777;SDS011;21899;42.662;23.316;2023-08-21T00:12:49;8.30;;;5.80;;
35777;SDS011;21899;42.662;23.316;2023-08-21T00:15:14;8.95;;;6.05;;
35777;SDS011;21899;42.662;23.316;2023-08-21T00:17:40;8.10;;;5.90;;
35777;SDS011;21899;42.662;23.316;2023-08-21T00:20:05;8.75;;;5.75;;
35777;SDS011;21899;42.662;23.316;2023-08-21T00:22:34;10.55;;;5.97;;
35777;SDS011;21899;42.662;23.316;2023-08-21T00:25:00;9.63;;;5.28;;
35777;SDS011;21899;42.662;23.316;2023-08-21T00:27:25;11.40;;;5.97;;
35777;SDS011;21899;42.662;23.316;2023-08-21T00:29:51;13.45;;;5.80;;
35777;SDS011;21899;42.662;23.316;2023-08-21T00:32:16;9.68;;;6.20;;
35777;SDS011;21899;42.662;23.316;2023-08-21T00:34:42;10.20;;;5.97;;
35777;SDS011;21899;42.662;23.316;2023-08-21T00:37:07;13.07;;;6.07;;
35777;SDS011;21899;42.662;23.316;2023-08-21T00:39:32;11.25;;;6.18;;
35777;SDS011;21899;42.662;23.316;2023-08-21T00:41:58;8.85;;;6.47;;
35777;SDS011;21899;42.662;23.316;2023-08-21T00:44:23;11.75;;;6.47;;
35777;SDS011;21899;42.662;23.316;2023-08-21T00:46:49;9.32;;;5.90;;
35777;SDS011;21899;42.662;23.316;2023-08-21T00:49:15;8.10;;;5.85;;
35777;SDS011;21899;42.662;23.316;2023-08-21T00:51:40;11.40;;;6.32;;
35777;SDS011;21899;42.662;23.316;2023-08-21T00:54:06;10.00;;;5.63;;
35777;SDS011;21899;42.662;23.316;2023-08-21T00:56:32;11.65;;;5.70;;
35777;SDS011;21899;42.662;23.316;2023-08-21T00:58:57;10.32;;;6.45;;
35777;SDS011;21899;42.662;23.316;2023-08-21T01:01:24;9.00;;;6.30;;
35777;SDS011;21899;42.662;23.316;2023-08-21T01:03:52;9.95;;;6.00;;
35777;SDS011;21899;42.662;23.316;2023-08-21T01:06:18;13.40;;;6.13;;
35777;SDS011;21899;42.662;23.316;2023-08-21T01:08:57;11.38;;;5.90;;
35777;SDS011;21899;42.662;23.316;2023-08-21T01:17:04;10.02;;;5.95;;
35777;SDS011;21899;42.662;23.316;2023-08-21T01:19:41;10.63;;;6.72;;
35777;SDS011;21899;42.662;23.316;2023-08-21T01:22:09;11.82;;;5.70;;
35777;SDS011;21899;42.662;23.316;2023-08-21T01:24:34;11.25;;;6.13;;
35777;SDS011;21899;42.662;23.316;2023-08-21T01:27:00;11.00;;;6.57;;
35777;SDS011;21899;42.662;23.316;2023-08-21T01:29:26;10.57;;;6.57;;
35777;SDS011;21899;42.662;23.316;2023-08-21T01:31:56;8.68;;;7.07;;
35777;SDS011;21899;42.662;23.316;2023-08-21T01:34:33;9.38;;;6.07;;
35777;SDS011;21899;42.662;23.316;2023-08-21T01:37:00;11.95;;;6.35;;
35777;SDS011;21899;42.662;23.316;2023-08-21T01:39:26;8.57;;;6.25;;
35777;SDS011;21899;42.662;23.316;2023-08-21T01:41:52;11.68;;;7.45;;
35777;SDS011;21899;42.662;23.316;2023-08-21T01:44:18;9.75;;;6.07;;
35777;SDS011;21899;42.662;23.316;2023-08-21T01:46:43;8.63;;;6.82;;
35777;SDS011;21899;42.662;23.316;2023-08-21T01:49:08;10.30;;;6.68;;
35777;SDS011;21899;42.662;23.316;2023-08-21T01:51:34;8.95;;;6.85;;
35777;SDS011;21899;42.662;23.316;2023-08-21T01:53:59;9.10;;;5.95;;
35777;SDS011;21899;42.662;23.316;2023-08-21T01:56:25;8.70;;;6.03;;
35777;SDS011;21899;42.662;23.316;2023-08-21T01:58:50;9.27;;;6.07;;
35777;SDS011;21899;42.662;23.316;2023-08-21T02:01:15;9.75;;;5.93;;
35777;SDS011;21899;42.662;23.316;2023-08-21T02:03:42;7.88;;;5.95;;
35777;SDS011;21899;42.662;23.316;2023-08-21T02:06:08;9.60;;;6.28;;
35777;SDS011;21899;42.662;23.316;2023-08-21T02:08:33;10.20;;;6.40;;
35777;SDS011;21899;42.662;23.316;2023-08-21T02:10:59;8.13;;;5.55;;
35777;SDS011;21899;42.662;23.316;2023-08-21T02:13:24;10.40;;;5.97;;
35777;SDS011;21899;42.662;23.316;2023-08-21T02:15:50;8.70;;;6.68;;
35777;SDS011;21899;42.662;23.316;2023-08-21T02:18:15;7.68;;;6.22;;
35777;SDS011;21899;42.662;23.316;2023-08-21T02:20:41;9.02;;;6.57;;
35777;SDS011;21899;42.662;23.316;2023-08-21T02:23:07;9.55;;;5.95;;
35777;SDS011;21899;42.662;23.316;2023-08-21T02:25:33;9.07;;;5.57;;
35777;SDS011;21899;42.662;23.316;2023-08-21T02:27:58;7.70;;;5.63;;
35777;SDS011;21899;42.662;23.316;2023-08-21T02:30:24;7.57;;;5.93;;
35777;SDS011;21899;42.662;23.316;2023-08-21T02:32:51;8.98;;;5.78;;
35777;SDS011;21899;42.662;23.316;2023-08-21T02:35:17;8.88;;;6.47;;
35777;SDS011;21899;42.662;23.316;2023-08-21T02:37:42;8.38;;;6.30;;
35777;SDS011;21899;42.662;23.316;2023-08-21T02:40:08;10.75;;;6.57;;
35777;SDS011;21899;42.662;23.316;2023-08-21T02:42:34;10.18;;;6.70;;
35777;SDS011;21899;42.662;23.316;2023-08-21T02:44:59;12.40;;;6.68;;
35777;SDS011;21899;42.662;23.316;2023-08-21T02:47:28;11.40;;;6.50;;
35777;SDS011;21899;42.662;23.316;2023-08-21T02:49:54;12.65;;;6.90;;
35777;SDS011;21899;42.662;23.316;2023-08-21T02:52:19;9.50;;;6.90;;
35777;SDS011;21899;42.662;23.316;2023-08-21T02:54:44;9.43;;;6.47;;
35777;SDS011;21899;42.662;23.316;2023-08-21T02:57:10;10.40;;;6.47;;
35777;SDS011;21899;42.662;23.316;2023-08-21T02:59:35;10.45;;;6.53;;
35777;SDS011;21899;42.662;23.316;2023-08-21T03:02:01;15.40;;;6.78;;
35777;SDS011;21899;42.662;23.316;2023-08-21T03:04:26;9.00;;;6.20;;
35777;SDS011;21899;42.662;23.316;2023-08-21T03:06:51;15.85;;;7.32;;
35777;SDS011;21899;42.662;23.316;2023-08-21T03:09:17;15.85;;;7.22;;
35777;SDS011;21899;42.662;23.316;2023-08-21T03:11:42;9.48;;;7.38;;
35777;SDS011;21899;42.662;23.316;2023-08-21T03:14:07;13.13;;;7.40;;
35777;SDS011;21899;42.662;23.316;2023-08-21T03:16:33;9.32;;;7.03;;
35777;SDS011;21899;42.662;23.316;2023-08-21T03:18:59;11.90;;;8.15;;
35777;SDS011;21899;42.662;23.316;2023-08-21T03:21:25;14.50;;;7.50;;
35777;SDS011;21899;42.662;23.316;2023-08-21T03:23:53;10.88;;;7.18;;
35777;SDS011;21899;42.662;23.316;2023-08-21T03:26:20;13.65;;;7.05;;
35777;SDS011;21899;42.662;23.316;2023-08-21T03:28:45;9.77;;;7.20;;
35777;SDS011;21899;42.662;23.316;2023-08-21T03:31:11;12.25;;;8.30;;
35777;SDS011;21899;42.662;23.316;2023-08-21T03:33:36;13.80;;;8.00;;
35777;SDS011;21899;42.662;23.316;2023-08-21T03:36:02;12.95;;;7.20;;
35777;SDS011;21899;42.662;23.316;2023-08-21T03:38:27;10.45;;;7.82;;
35777;SDS011;21899;42.662;23.316;2023-08-21T03:40:52;12.48;;;7.72;;
35777;SDS011;21899;42.662;23.316;2023-08-21T03:43:18;12.57;;;8.07;;
35777;SDS011;21899;42.662;23.316;2023-08-21T03:45:43;9.90;;;7.50;;
35777;SDS011;21899;42.662;23.316;2023-08-21T03:48:09;10.32;;;7.72;;
35777;SDS011;21899;42.662;23.316;2023-08-21T03:50:34;14.23;;;8.30;;
35777;SDS011;21899;42.662;23.316;2023-08-21T03:52:59;11.18;;;7.80;;
35777;SDS011;21899;42.662;23.316;2023-08-21T03:55:25;10.20;;;7.28;;
35777;SDS011;21899;42.662;23.316;2023-08-21T03:57:50;12.07;;;7.60;;
35777;SDS011;21899;42.662;23.316;2023-08-21T04:00:16;12.38;;;7.05;;
35777;SDS011;21899;42.662;23.316;2023-08-21T04:02:41;15.30;;;8.60;;
35777;SDS011;21899;42.662;23.316;2023-08-21T04:05:07;14.60;;;7.60;;
35777;SDS011;21899;42.662;23.316;2023-08-21T04:07:33;14.48;;;8.15;;
35777;SDS011;21899;42.662;23.316;2023-08-21T04:09:58;14.00;;;8.43;;
35777;SDS011;21899;42.662;23.316;2023-08-21T04:12:23;10.60;;;7.97;;
35777;SDS011;21899;42.662;23.316;2023-08-21T04:14:49;14.30;;;9.82;;
35777;SDS011;21899;42.662;23.316;2023-08-21T04:17:14;13.68;;;8.30;;
35777;SDS011;21899;42.662;23.316;2023-08-21T04:19:45;13.27;;;7.70;;
35777;SDS011;21899;42.662;23.316;2023-08-21T04:22:11;17.02;;;8.57;;
35777;SDS011;21899;42.662;23.316;2023-08-21T04:24:36;14.93;;;7.88;;
35777;SDS011;21899;42.662;23.316;2023-08-21T04:27:01;13.85;;;7.40;;
35777;SDS011;21899;42.662;23.316;2023-08-21T04:29:27;13.75;;;8.18;;
35777;SDS011;21899;42.662;23.316;2023-08-21T04:31:52;18.27;;;8.70;;
35777;SDS011;21899;42.662;23.316;2023-08-21T04:34:18;13.38;;;7.35;;
35777;SDS011;21899;42.662;23.316;2023-08-21T04:36:43;11.45;;;6.63;;
35777;SDS011;21899;42.662;23.316;2023-08-21T04:39:08;14.27;;;7.22;;
35777;SDS011;21899;42.662;23.316;2023-08-21T04:41:34;12.98;;;7.35;;
35777;SDS011;21899;42.662;23.316;2023-08-21T04:43:59;12.88;;;7.38;;
35777;SDS011;21899;42.662;23.316;2023-08-21T04:46:25;10.32;;;7.13;;
35777;SDS011;21899;42.662;23.316;2023-08-21T04:48:50;12.80;;;7.50;;
35777;SDS011;21899;42.662;23.316;2023-08-21T04:51:16;12.15;;;7.40;;
35777;SDS011;21899;42.662;23.316;2023-08-21T04:53:41;15.32;;;8.63;;
35777;SDS011;21899;42.662;23.316;2023-08-21T04:56:06;11.38;;;7.10;;
35777;SDS011;21899;42.662;23.316;2023-08-21T04:58:32;10.77;;;7.22;;
35777;SDS011;21899;42.662;23.316;2023-08-21T05:00:57;15.95;;;7.68;;
35777;SDS011;21899;42.662;23.316;2023-08-21T05:03:24;13.75;;;8.10;;
35777;SDS011;21899;42.662;23.316;2023-08-21T05:05:53;14.50;;;8.20;;
35777;SDS011;21899;42.662;23.316;2023-08-21T05:08:20;12.95;;;8.35;;
35777;SDS011;21899;42.662;23.316;2023-08-21T05:10:46;15.88;;;7.50;;
35777;SDS011;21899;42.662;23.316;2023-08-21T05:13:12;11.07;;;7.68;;
35777;SDS011;21899;42.662;23.316;2023-08-21T05:15:37;11.95;;;8.10;;
35777;SDS011;21899;42.662;23.316;2023-08-21T05:18:02;14.20;;;7.88;;
35777;SDS011;21899;42.662;23.316;2023-08-21T05:20:28;12.30;;;7.55;;
35777;SDS011;21899;42.662;23.316;2023-08-21T05:22:53;14.43;;;7.88;;
35777;SDS011;21899;42.662;23.316;2023-08-21T05:25:19;13.05;;;7.72;;
35777;SDS011;21899;42.662;23.316;2023-08-21T05:27:44;17.00;;;7.82;;
35777;SDS011;21899;42.662;23.316;2023-08-21T05:30:10;16.85;;;8.32;;
35777;SDS011;21899;42.662;23.316;2023-08-21T05:32:37;15.98;;;8.20;;
35777;SDS011;21899;42.662;23.316;2023-08-21T05:35:03;15.75;;;8.75;;
35777;SDS011;21899;42.662;23.316;2023-08-21T05:37:28;13.57;;;7.68;;
35777;SDS011;21899;42.662;23.316;2023-08-21T05:39:54;12.30;;;7.78;;
35777;SDS011;21899;42.662;23.316;2023-08-21T05:42:20;11.18;;;8.10;;
35777;SDS011;21899;42.662;23.316;2023-08-21T05:44:45;18.42;;;7.82;;
35777;SDS011;21899;42.662;23.316;2023-08-21T05:47:11;12.45;;;8.05;;
35777;SDS011;21899;42.662;23.316;2023-08-21T05:49:36;9.38;;;7.13;;
35777;SDS011;21899;42.662;23.316;2023-08-21T05:52:01;11.95;;;7.68;;
35777;SDS011;21899;42.662;23.316;2023-08-21T05:54:27;13.70;;;8.15;;
35777;SDS011;21899;42.662;23.316;2023-08-21T05:56:53;13.40;;;7.88;;
35777;SDS011;21899;42.662;23.316;2023-08-21T05:59:29;11.23;;;7.38;;
35777;SDS011;21899;42.662;23.316;2023-08-21T06:01:56;13.65;;;7.25;;
35777;SDS011;21899;42.662;23.316;2023-08-21T06:04:21;12.65;;;7.20;;
35777;SDS011;21899;42.662;23.316;2023-08-21T06:06:47;14.35;;;7.68;;
35777;SDS011;21899;42.662;23.316;2023-08-21T06:09:13;14.50;;;7.50;;
35777;SDS011;21899;42.662;23.316;2023-08-21T06:11:38;11.73;;;7.30;;
35777;SDS011;21899;42.662;23.316;2023-08-21T06:14:04;13.02;;;7.25;;
35777;SDS011;21899;42.662;23.316;2023-08-21T06:16:29;11.13;;;7.28;;
35777;SDS011;21899;42.662;23.316;2023-08-21T06:18:55;11.82;;;7.38;;
35777;SDS011;21899;42.662;23.316;2023-08-21T06:21:20;9.90;;;6.70;;
35777;SDS011;21899;42.662;23.316;2023-08-21T06:23:45;9.95;;;5.90;;
35777;SDS011;21899;42.662;23.316;2023-08-21T06:26:11;12.05;;;6.35;;
35777;SDS011;21899;42.662;23.316;2023-08-21T06:28:36;10.32;;;6.60;;
35777;SDS011;21899;42.662;23.316;2023-08-21T06:31:02;9.85;;;6.05;;
35777;SDS011;21899;42.662;23.316;2023-08-21T06:33:32;11.90;;;6.30;;
35777;SDS011;21899;42.662;23.316;2023-08-21T06:35:58;13.63;;;6.72;;
35777;SDS011;21899;42.662;23.316;2023-08-21T06:38:24;10.10;;;5.80;;
35777;SDS011;21899;42.662;23.316;2023-08-21T06:40:49;8.25;;;5.85;;
35777;SDS011;21899;42.662;23.316;2023-08-21T06:43:16;10.07;;;5.53;;
35777;SDS011;21899;42.662;23.316;2023-08-21T06:45:42;13.93;;;5.97;;
35777;SDS011;21899;42.662;23.316;2023-08-21T06:48:07;7.63;;;6.13;;
35777;SDS011;21899;42.662;23.316;2023-08-21T06:50:32;10.43;;;6.35;;
35777;SDS011;21899;42.662;23.316;2023-08-21T06:52:58;9.40;;;5.90;;
35777;SDS011;21899;42.662;23.316;2023-08-21T06:55:23;10.82;;;6.03;;
35777;SDS011;21899;42.662;23.316;2023-08-21T06:57:49;9.90;;;5.43;;
35777;SDS011;21899;42.662;23.316;2023-08-21T07:00:14;8.63;;;5.95;;
35777;SDS011;21899;42.662;23.316;2023-08-21T07:02:40;8.45;;;5.40;;
35777;SDS011;21899;42.662;23.316;2023-08-21T07:05:05;9.43;;;5.88;;
35777;SDS011;21899;42.662;23.316;2023-08-21T07:07:31;10.10;;;6.43;;
35777;SDS011;21899;42.662;23.316;2023-08-21T07:09:56;7.25;;;5.43;;
35777;SDS011;21899;42.662;23.316;2023-08-21T07:12:22;9.88;;;5.88;;
35777;SDS011;21899;42.662;23.316;2023-08-21T07:14:47;8.40;;;5.68;;
35777;SDS011;21899;42.662;23.316;2023-08-21T07:17:13;14.07;;;5.97;;
35777;SDS011;21899;42.662;23.316;2023-08-21T07:19:39;10.38;;;6.00;;
35777;SDS011;21899;42.662;23.316;2023-08-21T07:22:04;13.35;;;5.20;;
35777;SDS011;21899;42.662;23.316;2023-08-21T07:24:29;7.93;;;5.32;;
35777;SDS011;21899;42.662;23.316;2023-08-21T07:26:55;9.32;;;5.72;;
35777;SDS011;21899;42.662;23.316;2023-08-21T07:29:20;6.72;;;4.97;;
35777;SDS011;21899;42.662;23.316;2023-08-21T07:31:46;8.77;;;5.22;;
35777;SDS011;21899;42.662;23.316;2023-08-21T07:34:11;8.45;;;5.00;;
35777;SDS011;21899;42.662;23.316;2023-08-21T07:36:36;10.80;;;5.18;;
35777;SDS011;21899;42.662;23.316;2023-08-21T07:39:02;6.10;;;4.88;;
35777;SDS011;21899;42.662;23.316;2023-08-21T07:41:27;7.72;;;5.53;;
35777;SDS011;21899;42.662;23.316;2023-08-21T07:43:53;9.00;;;6.10;;
35777;SDS011;21899;42.662;23.316;2023-08-21T07:46:18;13.85;;;5.65;;
35777;SDS011;21899;42.662;23.316;2023-08-21T07:48:44;9.88;;;5.55;;
35777;SDS011;21899;42.662;23.316;2023-08-21T07:51:10;10.27;;;6.22;;
35777;SDS011;21899;42.662;23.316;2023-08-21T07:53:36;12.25;;;6.00;;
35777;SDS011;21899;42.662;23.316;2023-08-21T07:56:02;10.23;;;5.30;;
35777;SDS011;21899;42.662;23.316;2023-08-21T07:58:31;7.15;;;5.30;;
35777;SDS011;21899;42.662;23.316;2023-08-21T08:00:57;11.50;;;6.00;;
35777;SDS011;21899;42.662;23.316;2023-08-21T08:03:22;7.05;;;5.35;;
35777;SDS011;21899;42.662;23.316;2023-08-21T08:05:48;8.38;;;4.90;;
35777;SDS011;21899;42.662;23.316;2023-08-21T08:08:13;7.22;;;5.28;;
35777;SDS011;21899;42.662;23.316;2023-08-21T08:10:39;9.25;;;5.75;;
35777;SDS011;21899;42.662;23.316;2023-08-21T08:13:05;9.63;;;5.70;;
35777;SDS011;21899;42.662;23.316;2023-08-21T08:15:31;8.95;;;6.05;;
35777;SDS011;21899;42.662;23.316;2023-08-21T08:17:59;7.88;;;5.03;;
35777;SDS011;21899;42.662;23.316;2023-08-21T08:20:24;7.40;;;5.05;;
35777;SDS011;21899;42.662;23.316;2023-08-21T08:22:50;6.25;;;4.93;;
35777;SDS011;21899;42.662;23.316;2023-08-21T08:25:15;9.23;;;6.20;;
35777;SDS011;21899;42.662;23.316;2023-08-21T08:27:42;9.18;;;5.40;;
35777;SDS011;21899;42.662;23.316;2023-08-21T08:30:08;6.47;;;5.18;;
35777;SDS011;21899;42.662;23.316;2023-08-21T08:32:33;6.93;;;5.07;;
35777;SDS011;21899;42.662;23.316;2023-08-21T08:34:59;7.13;;;4.80;;
35777;SDS011;21899;42.662;23.316;2023-08-21T08:37:24;14.15;;;5.25;;
35777;SDS011;21899;42.662;23.316;2023-08-21T08:39:50;12.23;;;5.22;;
35777;SDS011;21899;42.662;23.316;2023-08-21T08:42:15;6.28;;;4.80;;
35777;SDS011;21899;42.662;23.316;2023-08-21T08:44:42;6.32;;;4.85;;
35777;SDS011;21899;42.662;23.316;2023-08-21T08:47:11;8.88;;;4.82;;
35777;SDS011;21899;42.662;23.316;2023-08-21T08:49:39;13.93;;;5.25;;
35777;SDS011;21899;42.662;23.316;2023-08-21T08:52:05;10.27;;;5.68;;
35777;SDS011;21899;42.662;23.316;2023-08-21T08:54:31;8.10;;;5.25;;
35777;SDS011;21899;42.662;23.316;2023-08-21T08:56:57;8.73;;;5.28;;
35777;SDS011;21899;42.662;23.316;2023-08-21T08:59:23;6.65;;;5.20;;
35777;SDS011;21899;42.662;23.316;2023-08-21T09:01:49;8.20;;;4.70;;
35777;SDS011;21899;42.662;23.316;2023-08-21T09:04:15;7.80;;;5.15;;
35777;SDS011;21899;42.662;23.316;2023-08-21T09:06:40;9.95;;;5.50;;
35777;SDS011;21899;42.662;23.316;2023-08-21T09:09:07;7.05;;;5.00;;
35777;SDS011;21899;42.662;23.316;2023-08-21T09:11:33;6.85;;;5.40;;
35777;SDS011;21899;42.662;23.316;2023-08-21T09:13:59;9.38;;;4.72;;
35777;SDS011;21899;42.662;23.316;2023-08-21T09:16:25;8.27;;;5.30;;
35777;SDS011;21899;42.662;23.316;2023-08-21T09:18:51;9.48;;;4.53;;
35777;SDS011;21899;42.662;23.316;2023-08-21T09:21:19;9.43;;;5.40;;
35777;SDS011;21899;42.662;23.316;2023-08-21T09:23:46;8.02;;;4.70;;
35777;SDS011;21899;42.662;23.316;2023-08-21T09:26:22;8.52;;;5.10;;
35777;SDS011;21899;42.662;23.316;2023-08-21T09:28:49;6.72;;;4.22;;
35777;SDS011;21899;42.662;23.316;2023-08-21T09:31:16;8.43;;;4.35;;
35777;SDS011;21899;42.662;23.316;2023-08-21T09:33:54;10.90;;;4.80;;
35777;SDS011;21899;42.662;23.316;2023-08-21T09:36:30;10.48;;;5.05;;
35777;SDS011;21899;42.662;23.316;2023-08-21T09:38:56;11.43;;;5.05;;
35777;SDS011;21899;42.662;23.316;2023-08-21T09:41:25;5.32;;;4.43;;
35777;SDS011;21899;42.662;23.316;2023-08-21T09:43:51;6.03;;;4.90;;
35777;SDS011;21899;42.662;23.316;2023-08-21T09:46:17;7.30;;;4.57;;
35777;SDS011;21899;42.662;23.316;2023-08-21T09:48:48;8.95;;;5.60;;
35777;SDS011;21899;42.662;23.316;2023-08-21T09:51:14;7.70;;;3.83;;
35777;SDS011;21899;42.662;23.316;2023-08-21T09:53:40;12.20;;;5.28;;
35777;SDS011;21899;42.662;23.316;2023-08-21T09:56:06;7.65;;;5.07;;
35777;SDS011;21899;42.662;23.316;2023-08-21T09:58:34;7.25;;;4.63;;
35777;SDS011;21899;42.662;23.316;2023-08-21T10:01:01;11.85;;;5.20;;
35777;SDS011;21899;42.662;23.316;2023-08-21T10:03:36;8.40;;;5.38;;
35777;SDS011;21899;42.662;23.316;2023-08-21T10:06:03;6.93;;;5.00;;
35777;SDS011;21899;42.662;23.316;2023-08-21T10:08:31;6.68;;;4.97;;
35777;SDS011;21899;42.662;23.316;2023-08-21T10:11:00;5.18;;;4.47;;
35777;SDS011;21899;42.662;23.316;2023-08-21T10:13:25;6.25;;;4.53;;
35777;SDS011;21899;42.662;23.316;2023-08-21T10:15:52;5.95;;;3.85;;
35777;SDS011;21899;42.662;23.316;2023-08-21T10:18:18;6.43;;;4.15;;
35777;SDS011;21899;42.662;23.316;2023-08-21T10:20:45;5.65;;;4.15;;
35777;SDS011;21899;42.662;23.316;2023-08-21T10:23:23;5.22;;;4.55;;
35777;SDS011;21899;42.662;23.316;2023-08-21T10:25:54;6.90;;;4.05;;
35777;SDS011;21899;42.662;23.316;2023-08-21T10:31:46;12.20;;;4.43;;
35777;SDS011;21899;42.662;23.316;2023-08-21T10:34:06;8.20;;;4.28;;
35777;SDS011;21899;42.662;23.316;2023-08-21T10:42:33;5.72;;;4.40;;
35777;SDS011;21899;42.662;23.316;2023-08-21T10:44:49;7.55;;;4.22;;
35777;SDS011;21899;42.662;23.316;2023-08-21T10:49:54;7.78;;;5.07;;
35777;SDS011;21899;42.662;23.316;2023-08-21T10:52:21;7.20;;;5.07;;
35777;SDS011;21899;42.662;23.316;2023-08-21T10:54:50;8.50;;;4.40;;
35777;SDS011;21899;42.662;23.316;2023-08-21T10:57:16;9.32;;;4.88;;
35777;SDS011;21899;42.662;23.316;2023-08-21T11:00:03;9.05;;;4.30;;
35777;SDS011;21899;42.662;23.316;2023-08-21T11:02:34;7.28;;;5.10;;
35777;SDS011;21899;42.662;23.316;2023-08-21T11:05:01;6.47;;;4.80;;
35777;SDS011;21899;42.662;23.316;2023-08-21T11:07:30;6.72;;;4.13;;
35777;SDS011;21899;42.662;23.316;2023-08-21T11:10:01;4.93;;;3.80;;
35777;SDS011;21899;42.662;23.316;2023-08-21T11:12:28;5.55;;;4.13;;
35777;SDS011;21899;42.662;23.316;2023-08-21T11:14:53;6.88;;;4.40;;
35777;SDS011;21899;42.662;23.316;2023-08-21T11:17:19;8.02;;;4.78;;
35777;SDS011;21899;42.662;23.316;2023-08-21T11:19:44;4.85;;;4.35;;
35777;SDS011;21899;42.662;23.316;2023-08-21T11:22:10;7.30;;;4.25;;
35777;SDS011;21899;42.662;23.316;2023-08-21T11:27:02;4.95;;;4.25;;
35777;SDS011;21899;42.662;23.316;2023-08-21T11:29:30;5.00;;;3.92;;
35777;SDS011;21899;42.662;23.316;2023-08-21T11:32:02;6.28;;;4.32;;
35777;SDS011;21899;42.662;23.316;2023-08-21T11:34:28;6.68;;;4.53;;
35777;SDS011;21899;42.662;23.316;2023-08-21T11:36:54;6.32;;;4.30;;
35777;SDS011;21899;42.662;23.316;2023-08-21T11:39:20;7.38;;;4.35;;
35777;SDS011;21899;42.662;23.316;2023-08-21T11:41:54;8.70;;;4.95;;
35777;SDS011;21899;42.662;23.316;2023-08-21T11:44:20;7.72;;;4.88;;
35777;SDS011;21899;42.662;23.316;2023-08-21T11:46:45;6.32;;;4.20;;
35777;SDS011;21899;42.662;23.316;2023-08-21T11:49:11;6.28;;;4.10;;
35777;SDS011;21899;42.662;23.316;2023-08-21T11:51:37;5.80;;;4.15;;
35777;SDS011;21899;42.662;23.316;2023-08-21T11:54:04;5.40;;;4.22;;
35777;SDS011;21899;42.662;23.316;2023-08-21T11:56:30;5.35;;;4.32;;
35777;SDS011;21899;42.662;23.316;2023-08-21T11:58:56;7.15;;;4.95;;
35777;SDS011;21899;42.662;23.316;2023-08-21T12:01:24;6.43;;;4.20;;
35777;SDS011;21899;42.662;23.316;2023-08-21T12:03:49;7.28;;;4.57;;
35777;SDS011;21899;42.662;23.316;2023-08-21T12:06:22;6.07;;;4.13;;
35777;SDS011;21899;42.662;23.316;2023-08-21T12:08:48;5.75;;;4.00;;
35777;SDS011;21899;42.662;23.316;2023-08-21T12:11:13;5.25;;;3.85;;
35777;SDS011;21899;42.662;23.316;2023-08-21T12:13:38;9.27;;;4.35;;
35777;SDS011;21899;42.662;23.316;2023-08-21T12:16:04;5.50;;;3.88;;
35777;SDS011;21899;42.662;23.316;2023-08-21T12:18:30;8.35;;;4.72;;
35777;SDS011;21899;42.662;23.316;2023-08-21T12:20:55;7.13;;;3.85;;
35777;SDS011;21899;42.662;23.316;2023-08-21T12:23:21;4.93;;;3.75;;
35777;SDS011;21899;42.662;23.316;2023-08-21T12:25:47;6.95;;;4.13;;
35777;SDS011;21899;42.662;23.316;2023-08-21T12:28:12;8.70;;;4.05;;
35777;SDS011;21899;42.662;23.316;2023-08-21T12:30:38;6.93;;;4.28;;
35777;SDS011;21899;42.662;23.316;2023-08-21T12:33:03;5.50;;;4.18;;
35777;SDS011;21899;42.662;23.316;2023-08-21T12:35:29;5.13;;;3.97;;
35777;SDS011;21899;42.662;23.316;2023-08-21T12:37:55;7.53;;;4.05;;
35777;SDS011;21899;42.662;23.316;2023-08-21T12:40:22;7.35;;;4.00;;
35777;SDS011;21899;42.662;23.316;2023-08-21T12:42:47;7.05;;;4.25;;
35777;SDS011;21899;42.662;23.316;2023-08-21T12:45:13;5.63;;;4.50;;
35777;SDS011;21899;42.662;23.316;2023-08-21T12:47:38;5.45;;;4.20;;
35777;SDS011;21899;42.662;23.316;2023-08-21T12:50:05;6.38;;;4.47;;
35777;SDS011;21899;42.662;23.316;2023-08-21T12:52:31;5.22;;;4.10;;
35777;SDS011;21899;42.662;23.316;2023-08-21T12:54:56;5.28;;;4.10;;
35777;SDS011;21899;42.662;23.316;2023-08-21T12:57:22;6.60;;;3.95;;
35777;SDS011;21899;42.662;23.316;2023-08-21T12:59:47;6.28;;;4.20;;
35777;SDS011;21899;42.662;23.316;2023-08-21T13:02:12;7.40;;;3.88;;
35777;SDS011;21899;42.662;23.316;2023-08-21T13:04:38;5.50;;;4.10;;
35777;SDS011;21899;42.662;23.316;2023-08-21T13:07:04;7.40;;;4.03;;
35777;SDS011;21899;42.662;23.316;2023-08-21T13:09:30;6.10;;;4.35;;
35777;SDS011;21899;42.662;23.316;2023-08-21T13:11:55;7.95;;;4.18;;
35777;SDS011;21899;42.662;23.316;2023-08-21T13:14:21;6.57;;;4.05;;
35777;SDS011;21899;42.662;23.316;2023-08-21T13:16:46;7.25;;;3.95;;
35777;SDS011;21899;42.662;23.316;2023-08-21T13:19:12;9.00;;;4.32;;
35777;SDS011;21899;42.662;23.316;2023-08-21T13:21:37;7.25;;;3.85;;
35777;SDS011;21899;42.662;23.316;2023-08-21T13:24:03;8.80;;;4.38;;
35777;SDS011;21899;42.662;23.316;2023-08-21T13:26:29;9.23;;;4.60;;
35777;SDS011;21899;42.662;23.316;2023-08-21T13:28:56;8.18;;;4.07;;
35777;SDS011;21899;42.662;23.316;2023-08-21T13:31:21;6.57;;;4.68;;
35777;SDS011;21899;42.662;23.316;2023-08-21T13:33:47;6.53;;;4.07;;
35777;SDS011;21899;42.662;23.316;2023-08-21T13:36:14;6.68;;;4.22;;
35777;SDS011;21899;42.662;23.316;2023-08-21T13:38:40;7.75;;;5.18;;
35777;SDS011;21899;42.662;23.316;2023-08-21T13:41:06;6.18;;;3.63;;
35777;SDS011;21899;42.662;23.316;2023-08-21T13:43:32;8.27;;;4.32;;
35777;SDS011;21899;42.662;23.316;2023-08-21T13:45:59;9.52;;;4.50;;
35777;SDS011;21899;42.662;23.316;2023-08-21T13:48:25;4.72;;;4.22;;
35777;SDS011;21899;42.662;23.316;2023-08-21T13:50:51;8.05;;;4.05;;
35777;SDS011;21899;42.662;23.316;2023-08-21T13:53:16;5.85;;;4.38;;
35777;SDS011;21899;42.662;23.316;2023-08-21T13:55:42;6.90;;;3.88;;
35777;SDS011;21899;42.662;23.316;2023-08-21T13:58:07;8.65;;;4.97;;
35777;SDS011;21899;42.662;23.316;2023-08-21T14:00:33;8.15;;;4.55;;
35777;SDS011;21899;42.662;23.316;2023-08-21T14:02:58;6.45;;;4.28;;
35777;SDS011;21899;42.662;23.316;2023-08-21T14:05:24;5.60;;;4.43;;
35777;SDS011;21899;42.662;23.316;2023-08-21T14:07:51;4.90;;;4.10;;
35777;SDS011;21899;42.662;23.316;2023-08-21T14:10:17;5.78;;;3.97;;
35777;SDS011;21899;42.662;23.316;2023-08-21T14:12:42;8.35;;;4.32;;
35777;SDS011;21899;42.662;23.316;2023-08-21T14:15:07;5.43;;;3.83;;
35777;SDS011;21899;42.662;23.316;2023-08-21T14:17:33;9.77;;;4.35;;
35777;SDS011;21899;42.662;23.316;2023-08-21T14:19:59;8.15;;;4.55;;
35777;SDS011;21899;42.662;23.316;2023-08-21T14:22:25;8.82;;;4.18;;
35777;SDS011;21899;42.662;23.316;2023-08-21T14:24:51;5.80;;;3.83;;
35777;SDS011;21899;42.662;23.316;2023-08-21T14:27:16;6.03;;;4.00;;
35777;SDS011;21899;42.662;23.316;2023-08-21T14:29:42;6.00;;;4.25;;
35777;SDS011;21899;42.662;23.316;2023-08-21T14:32:09;7.72;;;4.85;;
35777;SDS011;21899;42.662;23.316;2023-08-21T14:34:35;7.25;;;4.07;;
35777;SDS011;21899;42.662;23.316;2023-08-21T14:37:00;5.45;;;4.00;;
35777;SDS011;21899;42.662;23.316;2023-08-21T14:39:26;7.20;;;4.28;;
35777;SDS011;21899;42.662;23.316;2023-08-21T14:41:55;6.18;;;4.30;;